Copthorne, United Kingdom
Current Conditions -  °F | °C
As of 2:50 PM on Tuesday 21 Oct 2014 (Local Time) from EGKK Reporting Station
Few Clouds Few Clouds  
Wind Chill: 57°   Ceiling: Unl
Heat Index: 57°   Visibility: 6mi
Dew Point: 39°   Wind: 23mph
Humidity: 51%   Direction: 290°WNW
Pressure: 29.77"   Gusts: NA
Location:  51.14°N, 0.12°W
Report Text: EGKK 211350Z 29020KT 9999 FEW048 14/04 Q1008
Loading
Personal Weather Stations






























Interactive Weather Map
Tropical Storm Tracking
New forecast layout! Learn more

10-Day Weather Forecast

Advertisements
Track Severe Weather on mobile